createdAt,value
2022-08-20T03:17:12.549Z,1.00
2022-08-20T03:19:40.674Z,1.00
2022-08-20T03:22:08.767Z,1.00
2022-08-20T03:24:36.962Z,1.00
2022-08-20T03:27:05.649Z,1.00
2022-08-20T03:29:35.431Z,1.00
2022-08-20T03:32:07.567Z,1.00
2022-08-20T03:34:37.326Z,1.00
2022-08-20T03:37:05.688Z,1.00
2022-08-20T03:39:33.783Z,1.00
2022-08-20T03:42:02.500Z,1.00
2022-08-20T03:44:30.594Z,1.00
2022-08-20T03:46:58.702Z,1.00
2022-08-20T03:49:26.810Z,1.00
2022-08-20T03:51:57.939Z,1.00
2022-08-20T03:54:29.115Z,1.00
2022-08-20T03:57:02.359Z,99.90
2022-08-20T03:59:33.077Z,99.90
2022-08-20T04:02:01.581Z,99.90
2022-08-20T04:04:29.738Z,99.90
2022-08-20T04:06:59.311Z,99.90
2022-08-20T04:09:27.424Z,99.90
2022-08-20T04:12:00.364Z,99.90
2022-08-20T04:14:29.277Z,99.90
2022-08-20T04:16:58.424Z,99.90
2022-08-20T04:19:28.340Z,25.90
2022-08-20T04:22:00.824Z,1.00
2022-08-20T04:24:32.209Z,24.10
2022-08-20T04:27:02.819Z,40.80
2022-08-20T04:29:35.364Z,1.00
2022-08-20T04:32:06.012Z,1.00
2022-08-20T04:34:35.304Z,1.00
2022-08-20T04:37:04.998Z,1.00
2022-08-20T04:39:33.141Z,34.00
2022-08-20T04:42:00.362Z,1.60
2022-08-20T04:44:28.727Z,12.00
2022-08-20T04:46:58.023Z,1.00
2022-08-20T04:49:26.450Z,1.00
2022-08-20T04:51:56.063Z,1.00
2022-08-20T04:54:25.532Z,1.00
2022-08-20T04:56:53.648Z,1.00
2022-08-20T04:59:21.821Z,1.00
2022-08-20T05:01:49.846Z,1.00
2022-08-20T05:04:17.961Z,99.90
2022-08-20T05:06:46.148Z,99.90
2022-08-20T05:09:14.477Z,1.00
2022-08-20T05:11:43.922Z,1.00
2022-08-20T05:14:12.320Z,99.90
2022-08-20T05:16:41.378Z,99.90
2022-08-20T05:19:12.155Z,99.90
2022-08-20T05:21:41.089Z,99.90
2022-08-20T05:24:10.248Z,99.90
2022-08-20T05:26:38.454Z,99.90
2022-08-20T05:29:08.035Z,99.90
2022-08-20T05:31:36.531Z,99.90
2022-08-20T05:34:10.039Z,99.90
2022-08-20T05:36:40.201Z,99.90
2022-08-20T05:39:08.937Z,99.90
2022-08-20T05:41:37.900Z,99.90
2022-08-20T05:44:10.770Z,99.90
2022-08-20T05:46:41.175Z,99.90
2022-08-20T05:49:10.052Z,1.00
2022-08-20T05:51:38.662Z,99.90
2022-08-20T05:54:07.906Z,74.60
2022-08-20T05:56:37.200Z,99.90
2022-08-20T05:59:08.178Z,99.90
2022-08-20T06:01:38.690Z,1.00
2022-08-20T06:04:24.709Z,1.00
2022-08-20T06:06:54.296Z,1.00
2022-08-20T06:09:30.720Z,1.00
2022-08-20T06:12:01.572Z,99.90
2022-08-20T06:14:31.694Z,99.90
2022-08-20T06:17:07.848Z,1.00
2022-08-20T06:19:37.577Z,99.90
2022-08-20T06:22:19.047Z,99.90
2022-08-20T06:24:53.815Z,99.90
2022-08-20T06:27:22.804Z,99.90
2022-08-20T06:29:52.853Z,99.90
2022-08-20T06:32:27.862Z,1.00
2022-08-20T06:35:03.177Z,99.90
2022-08-20T06:37:33.734Z,99.90
2022-08-20T06:40:05.092Z,99.90
2022-08-20T06:42:33.262Z,99.90
2022-08-20T06:45:04.978Z,99.90
2022-08-20T06:47:34.177Z,99.90
2022-08-20T06:50:02.386Z,1.00
2022-08-20T06:52:52.517Z,69.00
2022-08-20T06:55:18.818Z,99.90
2022-08-20T06:57:48.429Z,1.00
2022-08-20T07:00:20.128Z,1.00
2022-08-20T07:02:48.253Z,99.90
2022-08-20T07:05:17.067Z,1.00
2022-08-20T07:07:47.678Z,99.90
2022-08-20T07:10:17.124Z,99.90
2022-08-20T07:12:46.917Z,99.90
2022-08-20T07:15:18.155Z,1.00
2022-08-20T07:17:51.654Z,1.00
2022-08-20T07:20:21.131Z,81.50
2022-08-20T07:22:49.412Z,1.00
2022-08-20T07:25:21.364Z,99.90
2022-08-20T07:27:50.519Z,99.90
2022-08-20T07:30:56.757Z,99.90
2022-08-20T07:33:26.330Z,99.90
2022-08-20T07:35:56.803Z,99.90
2022-08-20T07:38:27.403Z,1.00
2022-08-20T07:40:58.375Z,1.00
2022-08-20T07:43:27.756Z,1.00
2022-08-20T07:46:00.883Z,99.90
2022-08-20T07:48:31.966Z,1.00
2022-08-20T07:51:03.524Z,99.90
2022-08-20T07:53:35.701Z,1.00
2022-08-20T07:56:08.570Z,95.80
2022-08-20T07:58:38.404Z,1.00
2022-08-20T08:01:09.123Z,1.00
2022-08-20T08:03:49.032Z,1.00
2022-08-20T08:06:30.240Z,1.00
2022-08-20T08:09:03.436Z,67.00
2022-08-20T08:11:34.312Z,99.90
2022-08-20T08:14:04.172Z,99.90
2022-08-20T08:16:35.443Z,1.00
2022-08-20T08:19:07.573Z,1.00
2022-08-20T08:21:36.122Z,99.90
2022-08-20T08:24:04.864Z,99.90
2022-08-20T08:26:32.988Z,99.90
2022-08-20T08:29:01.121Z,99.90
2022-08-20T08:31:29.386Z,99.90
2022-08-20T08:33:58.970Z,99.90
2022-08-20T08:36:27.609Z,99.90
2022-08-20T08:38:56.766Z,99.90
2022-08-20T08:41:31.335Z,99.90
2022-08-20T08:44:06.208Z,99.90
2022-08-20T08:46:41.369Z,99.90
2022-08-20T08:49:13.512Z,99.90
2022-08-20T08:51:44.393Z,99.90
2022-08-20T08:54:17.706Z,99.90
2022-08-20T08:56:49.600Z,99.90
2022-08-20T08:59:20.016Z,99.90
2022-08-20T09:01:54.244Z,99.90
2022-08-20T09:04:31.847Z,99.90
2022-08-20T09:07:02.935Z,1.00
2022-08-20T09:09:33.974Z,1.00
2022-08-20T09:12:06.390Z,1.00
2022-08-20T09:14:36.020Z,1.00
2022-08-20T09:17:04.600Z,1.00
2022-08-20T09:19:34.289Z,99.90
2022-08-20T09:22:09.657Z,99.90
2022-08-20T09:24:38.006Z,99.90
2022-08-20T09:27:06.990Z,99.90
2022-08-20T09:29:38.578Z,99.90
2022-08-20T09:32:08.155Z,99.90
2022-08-20T09:34:40.033Z,99.90
2022-08-20T09:37:08.826Z,99.90
2022-08-20T09:39:37.255Z,99.90
2022-08-20T09:42:10.484Z,59.90
2022-08-20T09:44:39.078Z,28.50
2022-08-20T09:47:07.939Z,89.10
2022-08-20T09:49:37.393Z,72.90
2022-08-20T09:52:09.569Z,69.10
2022-08-20T09:54:46.303Z,41.10
2022-08-20T09:57:16.575Z,1.00
2022-08-20T09:59:45.683Z,2.70
2022-08-20T10:02:13.750Z,3.50
2022-08-20T10:04:41.894Z,17.20
2022-08-20T10:07:12.280Z,28.70
2022-08-20T10:09:44.113Z,30.60
2022-08-20T10:12:12.273Z,28.60
2022-08-20T10:14:40.950Z,57.90
2022-08-20T10:17:09.330Z,12.60
2022-08-20T10:19:37.450Z,1.00
2022-08-20T10:22:06.089Z,7.70
2022-08-20T10:24:36.282Z,1.00
2022-08-20T10:27:04.623Z,1.00
2022-08-20T10:29:33.176Z,1.00
2022-08-20T10:32:12.148Z,1.00
2022-08-20T10:34:40.908Z,1.00
2022-08-20T10:37:09.128Z,1.00
2022-08-20T10:39:38.976Z,1.00
2022-08-20T10:42:07.485Z,1.00
2022-08-20T10:44:35.677Z,1.00
2022-08-20T10:47:15.983Z,1.00
2022-08-20T10:49:44.127Z,1.00
2022-08-20T10:52:12.488Z,1.00
2022-08-20T10:54:42.345Z,1.00
2022-08-20T10:57:14.307Z,1.00
2022-08-20T10:59:43.954Z,1.00
2022-08-20T11:02:12.106Z,1.00
2022-08-20T11:04:41.127Z,1.00
2022-08-20T11:07:22.764Z,1.00
2022-08-20T11:10:13.927Z,1.00
2022-08-20T11:12:44.817Z,1.00
2022-08-20T11:15:15.841Z,1.00
2022-08-20T11:17:45.793Z,1.00
2022-08-20T11:20:16.461Z,1.00
2022-08-20T11:22:44.623Z,1.00
2022-08-20T11:25:14.503Z,1.00
2022-08-20T11:27:45.232Z,1.00
2022-08-20T11:30:16.813Z,1.00
2022-08-20T11:32:45.121Z,1.00
2022-08-20T11:35:41.114Z,1.00
2022-08-20T11:38:02.829Z,1.00
2022-08-20T11:40:32.740Z,1.00
2022-08-20T11:43:17.572Z,1.00
2022-08-20T11:45:48.686Z,1.00
2022-08-20T11:48:18.251Z,1.00
2022-08-20T11:50:46.844Z,1.00
2022-08-20T11:53:15.141Z,1.00
2022-08-20T11:55:44.733Z,1.00
2022-08-20T11:58:13.979Z,1.00
2022-08-20T12:00:42.221Z,1.00
2022-08-20T12:03:11.814Z,1.00
2022-08-20T12:05:42.035Z,1.00
2022-08-20T12:08:10.590Z,1.00
2022-08-20T12:10:58.324Z,1.00
2022-08-20T12:13:30.989Z,1.00
2022-08-20T12:16:15.349Z,1.00
2022-08-20T12:18:43.639Z,1.00
2022-08-20T12:21:11.891Z,1.00
2022-08-20T12:23:40.055Z,1.00
2022-08-20T12:26:09.572Z,1.00
2022-08-20T12:28:37.769Z,1.00
2022-08-20T12:31:06.089Z,1.00
2022-08-20T12:33:34.173Z,1.00
2022-08-20T12:36:02.704Z,1.00
2022-08-20T12:38:30.799Z,1.00
2022-08-20T12:40:59.019Z,1.00
2022-08-20T12:43:28.470Z,1.00
2022-08-20T12:45:56.556Z,1.00
2022-08-20T12:48:24.795Z,1.00
2022-08-20T12:50:53.460Z,1.00
2022-08-20T12:53:21.703Z,1.00
2022-08-20T12:55:49.966Z,1.00
2022-08-20T12:58:18.096Z,1.00
2022-08-20T13:00:51.224Z,1.00
2022-08-20T13:03:20.382Z,1.00
2022-08-20T13:05:48.828Z,1.00
2022-08-20T13:08:17.988Z,1.00
2022-08-20T13:10:46.380Z,1.00
2022-08-20T13:13:20.656Z,1.00
2022-08-20T13:15:51.850Z,1.00
2022-08-20T13:18:20.111Z,1.00
2022-08-20T13:20:49.134Z,1.00
2022-08-20T13:23:17.432Z,1.00
2022-08-20T13:25:46.608Z,1.00
2022-08-20T13:28:14.796Z,1.00
2022-08-20T13:30:42.894Z,1.00
2022-08-20T13:33:12.383Z,1.00
2022-08-20T13:35:40.456Z,1.00
2022-08-20T13:38:08.671Z,1.00
2022-08-20T13:40:36.806Z,1.00
2022-08-20T13:43:07.361Z,1.00
2022-08-20T13:45:36.176Z,1.00
2022-08-20T13:48:05.146Z,1.00
2022-08-20T13:50:38.961Z,1.00
2022-08-20T13:53:07.281Z,1.00
2022-08-20T13:55:35.437Z,1.00
2022-08-20T13:58:07.671Z,1.00
2022-08-20T14:00:36.555Z,1.00
2022-08-20T14:03:06.965Z,1.00
2022-08-20T14:05:35.299Z,1.00
2022-08-20T14:08:10.487Z,1.00
2022-08-20T14:10:39.482Z,1.00
2022-08-20T14:13:15.405Z,1.00
2022-08-20T14:15:44.957Z,1.00
2022-08-20T14:18:14.624Z,1.00
2022-08-20T14:20:45.555Z,1.00
2022-08-20T14:23:16.507Z,1.00
2022-08-20T14:25:47.561Z,1.00
2022-08-20T14:28:18.552Z,1.00
2022-08-20T14:30:52.906Z,1.00
2022-08-20T14:33:21.800Z,1.00
2022-08-20T14:35:49.982Z,1.00
2022-08-20T14:38:19.799Z,1.00
2022-08-20T14:40:50.334Z,1.00
2022-08-20T14:43:18.534Z,1.00
2022-08-20T14:45:46.629Z,1.00
2022-08-20T14:48:15.131Z,1.00
2022-08-20T14:50:43.240Z,1.00
2022-08-20T14:53:11.320Z,1.00
2022-08-20T14:55:40.814Z,1.00
2022-08-20T14:58:10.244Z,1.00
2022-08-20T15:00:38.628Z,1.00
2022-08-20T15:03:06.807Z,1.00
2022-08-20T15:05:39.324Z,1.00
2022-08-20T15:08:08.992Z,1.00
2022-08-20T15:10:40.837Z,1.00
2022-08-20T15:13:09.104Z,1.00
2022-08-20T15:15:37.259Z,1.00
2022-08-20T15:18:05.397Z,1.00
2022-08-20T15:20:35.857Z,1.00
2022-08-20T15:23:05.551Z,1.00
2022-08-20T15:25:36.799Z,1.00
2022-08-20T15:28:09.296Z,1.00
2022-08-20T15:30:38.864Z,1.00
2022-08-20T15:33:06.999Z,1.00
2022-08-20T15:35:35.164Z,1.00
2022-08-20T15:38:03.382Z,1.00
2022-08-20T15:40:33.546Z,1.00
2022-08-20T15:43:03.475Z,1.00
2022-08-20T15:45:33.993Z,1.00
2022-08-20T15:48:09.095Z,1.00
2022-08-20T15:50:53.099Z,1.00
2022-08-20T15:53:29.017Z,1.00
2022-08-20T15:56:08.125Z,1.00
2022-08-20T15:58:48.213Z,1.00
2022-08-20T16:01:27.054Z,1.00
2022-08-20T16:04:28.523Z,1.00
2022-08-20T16:07:02.389Z,1.00
2022-08-20T16:09:41.503Z,1.00
2022-08-20T16:12:12.173Z,1.00
2022-08-20T16:14:43.553Z,1.00
2022-08-20T16:17:17.720Z,1.00
2022-08-20T16:19:53.650Z,1.00
2022-08-20T16:22:22.609Z,1.00
2022-08-20T16:24:51.295Z,1.00
2022-08-20T16:27:31.021Z,1.00
2022-08-20T16:30:06.081Z,1.00
2022-08-20T16:32:41.993Z,1.00
2022-08-20T16:35:33.914Z,1.00
2022-08-20T16:38:08.984Z,7.00
2022-08-20T16:40:44.218Z,51.70
2022-08-20T16:43:22.539Z,99.90
2022-08-20T16:45:56.368Z,99.90
2022-08-20T16:48:34.924Z,99.90
2022-08-20T16:51:06.743Z,99.90
2022-08-20T16:53:35.830Z,99.90
2022-08-20T16:56:05.440Z,99.90
2022-08-20T16:58:33.535Z,99.90
2022-08-20T17:01:11.074Z,99.90
2022-08-20T17:03:50.375Z,1.00
2022-08-20T17:06:26.402Z,1.00
2022-08-20T17:08:55.156Z,1.00
2022-08-20T17:11:26.428Z,18.70
2022-08-20T17:14:06.062Z,1.00
2022-08-20T17:16:36.065Z,99.90
2022-08-20T17:19:27.141Z,99.90
2022-08-20T17:21:55.469Z,1.00
2022-08-20T17:24:27.466Z,1.00
2022-08-20T17:27:00.308Z,1.00
2022-08-20T17:29:32.099Z,1.00
2022-08-20T17:32:02.108Z,1.00
2022-08-20T17:34:43.357Z,99.90
2022-08-20T17:37:21.134Z,99.90
2022-08-20T17:39:52.311Z,1.00
2022-08-20T17:42:25.631Z,1.00
2022-08-20T17:44:56.777Z,99.90
2022-08-20T17:47:35.802Z,99.90
2022-08-20T17:50:13.191Z,1.00
2022-08-20T17:52:48.102Z,1.00
2022-08-20T17:55:16.844Z,1.00
2022-08-20T17:57:47.503Z,99.90
2022-08-20T18:00:23.407Z,1.00
2022-08-20T18:02:54.056Z,99.90
2022-08-20T18:05:23.955Z,99.90
2022-08-20T18:08:08.655Z,1.00
2022-08-20T18:10:43.439Z,1.00
2022-08-20T18:13:18.464Z,1.00
2022-08-20T18:15:50.935Z,99.90
2022-08-20T18:18:27.480Z,99.90
2022-08-20T18:21:22.435Z,1.00
2022-08-20T18:23:55.283Z,29.10
2022-08-20T18:26:30.497Z,1.00
2022-08-20T18:29:04.164Z,11.70
2022-08-20T18:31:45.183Z,1.00
2022-08-20T18:34:19.499Z,99.90
2022-08-20T18:37:01.512Z,99.90
2022-08-20T18:39:31.409Z,20.20
2022-08-20T18:42:03.384Z,99.90
2022-08-20T18:44:40.187Z,1.00
2022-08-20T18:47:24.407Z,99.90
2022-08-20T18:50:16.599Z,39.90
2022-08-20T18:52:50.152Z,1.00
2022-08-20T18:55:32.986Z,1.00
2022-08-20T18:58:02.980Z,99.90
2022-08-20T19:00:42.345Z,1.00
2022-08-20T19:03:21.283Z,1.00
2022-08-20T19:06:11.145Z,1.00
2022-08-20T19:08:49.864Z,81.70
2022-08-20T19:11:34.680Z,21.90
2022-08-20T19:14:18.449Z,21.50
2022-08-20T19:16:51.584Z,99.90
2022-08-20T19:19:22.203Z,99.90
2022-08-20T19:21:56.323Z,99.90
2022-08-20T19:24:33.760Z,99.90
2022-08-20T19:27:06.201Z,99.90
2022-08-20T19:29:37.737Z,1.00
2022-08-20T19:32:08.712Z,1.00
2022-08-20T19:34:37.557Z,1.00
2022-08-20T19:37:34.847Z,1.00
2022-08-20T19:40:05.831Z,1.00
2022-08-20T19:42:45.022Z,99.90
2022-08-20T19:45:23.248Z,99.90
2022-08-20T19:47:58.614Z,99.90
2022-08-20T19:50:33.301Z,99.90
2022-08-20T19:53:30.325Z,99.90
2022-08-20T19:56:03.493Z,99.90
2022-08-20T19:58:33.450Z,99.90
2022-08-20T20:01:03.282Z,1.00
2022-08-20T20:03:34.429Z,99.90
2022-08-20T20:06:15.186Z,99.90
2022-08-20T20:08:53.944Z,99.90
2022-08-20T20:11:29.550Z,99.90
2022-08-20T20:14:04.169Z,96.00
2022-08-20T20:16:34.085Z,24.00
2022-08-20T20:19:25.381Z,1.00
2022-08-20T20:22:18.989Z,99.90
2022-08-20T20:24:58.452Z,99.90
2022-08-20T20:27:31.992Z,1.00
2022-08-20T20:30:01.867Z,99.90
2022-08-20T20:32:30.798Z,1.00
2022-08-20T20:35:02.086Z,1.00
2022-08-20T20:37:49.002Z,1.00
2022-08-20T20:40:25.477Z,1.00
2022-08-20T20:43:05.275Z,1.00
2022-08-20T20:45:36.672Z,1.00
2022-08-20T20:48:16.635Z,99.90
2022-08-20T20:50:46.890Z,99.90
2022-08-20T20:53:17.021Z,99.90
2022-08-20T20:55:56.563Z,1.00
2022-08-20T20:58:26.103Z,1.00
2022-08-20T21:00:55.576Z,1.00
2022-08-20T21:03:23.788Z,71.10
2022-08-20T21:05:51.884Z,99.90
2022-08-20T21:08:20.492Z,99.90
2022-08-20T21:10:48.998Z,99.90
2022-08-20T21:13:17.116Z,99.90
2022-08-20T21:15:46.645Z,1.00
2022-08-20T21:18:14.740Z,1.00
2022-08-20T21:20:42.860Z,1.00
2022-08-20T21:23:11.008Z,1.00
2022-08-20T21:25:39.125Z,1.00
2022-08-20T21:28:08.882Z,1.00
2022-08-20T21:30:37.055Z,1.00
2022-08-20T21:33:18.138Z,1.00
2022-08-20T21:35:46.591Z,74.90
2022-08-20T21:38:14.814Z,85.30
2022-08-20T21:40:43.084Z,99.90
2022-08-20T21:43:14.365Z,71.60
2022-08-20T21:45:42.812Z,99.90
2022-08-20T21:48:12.738Z,99.90
2022-08-20T21:50:42.247Z,99.90
2022-08-20T21:53:12.905Z,99.90
2022-08-20T21:55:42.045Z,99.90
2022-08-20T21:58:10.443Z,99.90
2022-08-20T22:00:56.788Z,99.90
2022-08-20T22:03:31.914Z,99.90
2022-08-20T22:06:02.444Z,74.40
2022-08-20T22:08:31.529Z,99.90
2022-08-20T22:11:00.730Z,68.70
2022-08-20T22:13:31.877Z,59.50
2022-08-20T22:16:00.330Z,1.00
2022-08-20T22:18:28.737Z,1.00
2022-08-20T22:20:57.363Z,1.00
2022-08-20T22:23:26.963Z,1.00
2022-08-20T22:25:55.227Z,1.00
2022-08-20T22:28:23.505Z,1.00
2022-08-20T22:30:52.159Z,1.00
2022-08-20T22:33:23.316Z,1.00
2022-08-20T22:35:54.984Z,1.00
2022-08-20T22:38:23.972Z,1.00
2022-08-20T22:40:54.433Z,1.00
2022-08-20T22:43:23.357Z,99.90
2022-08-20T22:45:54.904Z,1.00
2022-08-20T22:48:23.262Z,1.00
2022-08-20T22:50:52.670Z,1.00
2022-08-20T22:53:22.886Z,1.00
2022-08-20T22:55:51.499Z,1.00
2022-08-20T22:58:30.358Z,1.00
2022-08-20T23:01:02.292Z,1.00
2022-08-20T23:03:40.039Z,1.00
2022-08-20T23:06:10.180Z,1.00
2022-08-20T23:08:40.074Z,1.00
